Flight Track Log - Related Links

Times and Time Zones

All times are in EDT time to prevent confusion due to time zone crossing. See the N536M flight status page for this flight to view local times or setup timezone preferences in your user account.

Time Position Orientation Groundspeed Altitude Reporting Facility
EDT Latitude Longitude Course Direction KTS MPH feet Rate Location/Type
Mon 07:32:17 AM 44.8514 -91.5014 130° Southeast 153 176 1,800  Level Minneapolis Center
Mon 07:33:18 AM 44.8133 -91.4864 164° South 165 190 3,600 1,623 Climbing Minneapolis Center
Mon 07:34:19 AM 44.7836 -91.4286 126° Southeast 178 205 5,100 1,574 Climbing Minneapolis Center
Mon 07:35:20 AM 44.7483 -91.3633 127° Southeast 196 226 6,800 1,672 Climbing Minneapolis Center
Mon 07:36:00 AM 44.7039 -91.1809 128° Southeast  Level Estimated
Mon 07:36:21 AM 44.7189 -91.3028 124° Southeast 194 223 8,500  Level Minneapolis Center
Mon 07:37:00 AM 44.6608 -91.1080 130° Southeast  Level FlightAware
Mon 07:37:22 AM 44.6869 -91.2383 125° Southeast 199 229 10,100  Level Minneapolis Center
Mon 07:38:23 AM 44.6514 -91.1694 126° Southeast 201 231 11,600 1,525 Climbing Minneapolis Center
Mon 07:39:24 AM 44.6172 -91.1033 126° Southeast 207 238 13,200 1,475 Climbing Minneapolis Center
Mon 07:40:25 AM 44.5822 -91.0356 126° Southeast 212 244 14,600 836 Climbing Minneapolis Center
Mon 07:41:26 AM 44.5444 -90.9653 127° Southeast 220 253 14,900 148 Climbing Minneapolis Center
Mon 07:42:27 AM 44.4961 -90.8767 127° Southeast 275 316 14,900  Level Minneapolis Center
Mon 07:43:28 AM 44.4475 -90.7836 126° Southeast 283 326 14,900  Level Minneapolis Center
Mon 07:44:30 AM 44.3969 -90.6886 127° Southeast 292 336 14,900  Level Minneapolis Center
Mon 07:45:31 AM 44.3511 -90.6017 126° Southeast 288 331 14,900  Level Minneapolis Center
Mon 07:46:32 AM 44.3008 -90.5069 127° Southeast 289 333 14,900  Level Minneapolis Center
Mon 07:47:33 AM 44.2544 -90.4208 127° Southeast 289 333 14,900  Level Minneapolis Center
Mon 07:48:34 AM 44.2042 -90.3272 127° Southeast 288 331 14,900  Level Minneapolis Center
Mon 07:49:35 AM 44.1544 -90.2339 127° Southeast 286 329 14,900  Level Minneapolis Center
Mon 07:50:36 AM 44.1081 -90.1472 127° Southeast 289 333 14,900  Level Minneapolis Center
Mon 07:51:37 AM 44.0589 -90.0539 126° Southeast 285 328 14,900  Level Minneapolis Center
Mon 07:52:38 AM 44.0119 -89.9692 128° Southeast 285 328 14,900  Level Minneapolis Center
Mon 07:53:39 AM 43.9619 -89.8764 127° Southeast 285 328 14,900  Level Minneapolis Center
Mon 07:54:40 AM 43.9117 -89.7847 127° Southeast 285 328 14,900  Level Minneapolis Center
Mon 07:55:41 AM 43.8653 -89.7006 127° Southeast 287 330 14,900  Level Minneapolis Center
Mon 07:56:43 AM 43.8156 -89.6083 127° Southeast 285 328 14,900  Level Minneapolis Center
Mon 07:57:44 AM 43.7653 -89.5192 128° Southeast 285 328 14,900  Level Minneapolis Center
Mon 07:58:45 AM 43.7183 -89.4325 127° Southeast 281 323 14,900  Level Minneapolis Center
Mon 07:59:15 AM 43.6942 -89.3903 128° Southeast 284 327 14,900  Level Chicago Center
Mon 08:00:17 AM 43.6450 -89.3050 129° Southeast 284 327 14,900 -194 Level Chicago Center
Mon 08:01:19 AM 43.5964 -89.2178 128° Southeast 286 329 14,500 -581 Descending Chicago Center
Mon 08:02:21 AM 43.5472 -89.1278 127° Southeast 291 335 13,700 -774 Descending Chicago Center
Mon 08:03:23 AM 43.4961 -89.0372 128° Southeast 298 343 12,900 -919 Descending Chicago Center
Mon 08:04:25 AM 43.4369 -88.9333 128° Southeast 296 341 11,800 -1,403 Descending Chicago Center
Mon 08:05:27 AM 43.3881 -88.8444 127° Southeast 294 338 10,000 -1,984 Descending Chicago Center
Mon 08:06:29 AM 43.3400 -88.7606 128° Southeast 284 327 7,700 -2,226 Descending Chicago Center
Mon 08:07:31 AM 43.2944 -88.6800 128° Southeast 276 318 5,400 -1,452 Descending Chicago Center
Mon 08:08:33 AM 43.2411 -88.5881 129° Southeast 269 310 4,700 -774 Descending Chicago Center
Mon 08:09:35 AM 43.1969 -88.5092 128° Southeast 265 305 3,800 -823 Descending Chicago Center
Mon 08:10:37 AM 43.1533 -88.4308 127° Southeast 262 302 3,000 -629 Descending Chicago Center
Mon 08:11:39 AM 43.1019 -88.3661 137° Southeast 257 296 2,500 -581 Descending Chicago Center
Mon 08:12:41 AM 43.0597 -88.3100 136° Southeast 217 250 1,800 -629 Descending Chicago Center
Mon 08:13:43 AM 43.0436 -88.2533 111° Southeast 173 199 1,200 -581 Descending Chicago Center
Mon 08:15:00 AM 43.0333 -88.2333 124° Southeast  Level FlightAware
Mon 08:22:00 AM 43.0410 -88.2371 124° Southeast  Level Estimated

Login

Don't have an account? Register now (free) for customized features, flight alerts, and more!